Terminal Aerodrome Forecast
Issued by NWS

Home | Current Version | Previous Version | Text Only | Print | Product List | Glossary On
Versions: 1 2 3 4 5 6 7 8 9 10 11 12 13 14 15 16 17 18
630
FTPA31 PHFO 171123
TAFHMK
TAF
PHMK 171123Z 1712/1812 VRB05KT P6SM VCSH SCT020 BKN040
     FM172000 18010KT P6SM FEW020 FEW045
     FM180500 15005KT P6SM FEW020 SCT040=

USA.gov is the U.S. government's official web portal to all federal, state and local government web resources and services.